Time;durP1;ratioP1;P1;durP2;ratioP2;P2;SDS_P1;SDS_P2;PMS_P1;PMS_P2;Temp;Humidity;BMP_temperature;BMP_pressure;BME280_temperature;BME280_humidity;BME280_pressure;Samples;Min_cycle;Max_cycle;Signal;HPM_P1;HPM_P2
2024/03/31 00:00:49;;;;;;;;;56.25;47.00;;;;;;;;6490769;39;9898;-51
2024/03/31 00:06:51;;;;;;;;;59.25;48.25;;;;;;;;6490337;39;9014;-55
2024/03/31 00:12:52;;;;;;;;;56.00;45.50;;;;;;;;6490206;39;8941;-56
2024/03/31 00:18:53;;;;;;;;;59.00;44.75;;;;;;;;6491282;31;9024;-53
2024/03/31 00:24:55;;;;;;;;;53.25;44.75;;;;;;;;6491466;46;8926;-54
2024/03/31 00:30:57;;;;;;;;;51.75;43.25;;;;;;;;6492135;39;8904;-55
2024/03/31 00:36:58;;;;;;;;;57.50;45.50;;;;;;;;6491652;31;8879;-52
2024/03/31 00:42:59;;;;;;;;;52.00;43.25;;;;;;;;6492027;46;8960;-55
2024/03/31 00:49:01;;;;;;;;;49.50;39.00;;;;;;;;6491950;39;8919;-52
2024/03/31 00:55:02;;;;;;;;;43.75;35.75;;;;;;;;6491705;46;8849;-52
2024/03/31 01:01:03;;;;;;;;;39.00;32.75;;;;;;;;6492005;46;8860;-51
2024/03/31 01:07:05;;;;;;;;;43.25;36.25;;;;;;;;6491950;39;8897;-51
2024/03/31 01:13:07;;;;;;;;;36.00;33.67;;;;;;;;6491910;39;8899;-53
2024/03/31 01:19:10;;;;;;;;;34.50;33.00;;;;;;;;6493124;39;9025;-53
2024/03/31 01:25:11;;;;;;;;;37.25;35.25;;;;;;;;6490906;46;8981;-54
2024/03/31 01:31:13;;;;;;;;;36.00;34.00;;;;;;;;6491899;46;8892;-53
2024/03/31 01:37:14;;;;;;;;;35.25;32.25;;;;;;;;6492018;39;9545;-54
2024/03/31 01:43:15;;;;;;;;;37.75;33.75;;;;;;;;6491928;39;9076;-55
2024/03/31 01:49:16;;;;;;;;;30.25;26.75;;;;;;;;6491866;39;8883;-52
2024/03/31 01:55:19;;;;;;;;;39.50;35.25;;;;;;;;6491300;39;9556;-55
2024/03/31 02:01:21;;;;;;;;;32.75;29.25;;;;;;;;6491369;39;8898;-53
2024/03/31 02:07:22;;;;;;;;;34.75;32.50;;;;;;;;6491699;31;8909;-54
2024/03/31 02:13:25;;;;;;;;;34.25;32.00;;;;;;;;6491060;39;8867;-55
2024/03/31 02:19:26;;;;;;;;;33.25;29.50;;;;;;;;6491588;39;8889;-53
2024/03/31 02:25:27;;;;;;;;;29.67;26.00;;;;;;;;6491238;39;9574;-52
2024/03/31 02:31:28;;;;;;;;;34.25;30.00;;;;;;;;6491762;39;8940;-54
2024/03/31 02:37:29;;;;;;;;;26.33;25.00;;;;;;;;6491376;39;8925;-51
2024/03/31 02:43:31;;;;;;;;;31.00;28.00;;;;;;;;6490118;31;8929;-51
2024/03/31 02:49:32;;;;;;;;;31.75;29.50;;;;;;;;6491424;39;8879;-51
2024/03/31 02:55:33;;;;;;;;;32.50;30.50;;;;;;;;6490235;39;9007;-55
2024/03/31 03:01:38;;;;;;;;;34.25;31.25;;;;;;;;6490586;46;9037;-53
2024/03/31 03:07:41;;;;;;;;;33.75;31.75;;;;;;;;6491962;31;9500;-56
2024/03/31 03:13:43;;;;;;;;;34.00;29.50;;;;;;;;6490846;39;8835;-54
2024/03/31 03:19:45;;;;;;;;;31.75;31.00;;;;;;;;6490741;46;8870;-54
2024/03/31 03:25:57;;;;;;;;;33.25;30.50;;;;;;;;6490863;39;8931;-54
2024/03/31 03:31:59;;;;;;;;;37.50;29.25;;;;;;;;6490391;46;8838;-54
2024/03/31 03:38:00;;;;;;;;;30.25;26.00;;;;;;;;6490291;46;8883;-52
2024/03/31 03:44:01;;;;;;;;;33.00;28.00;;;;;;;;6490067;39;8961;-53
2024/03/31 03:50:03;;;;;;;;;27.50;27.50;;;;;;;;6491136;39;8848;-53
2024/03/31 03:56:05;;;;;;;;;35.00;33.50;;;;;;;;6489447;39;8967;-54
2024/03/31 04:02:07;;;;;;;;;28.00;26.50;;;;;;;;6490055;46;9065;-55
2024/03/31 04:08:09;;;;;;;;;33.00;30.00;;;;;;;;6490248;39;8862;-53
2024/03/31 04:14:10;;;;;;;;;31.25;26.50;;;;;;;;6490401;39;8895;-50
2024/03/31 04:20:12;;;;;;;;;35.75;34.00;;;;;;;;6490594;47;8861;-55
2024/03/31 04:26:14;;;;;;;;;38.50;32.25;;;;;;;;6490173;31;8890;-54
2024/03/31 04:32:15;;;;;;;;;30.00;26.33;;;;;;;;6490271;46;8853;-54
2024/03/31 04:38:18;;;;;;;;;36.00;31.75;;;;;;;;6490886;39;8895;-52
2024/03/31 04:44:20;;;;;;;;;31.50;30.25;;;;;;;;6489761;47;8972;-50
2024/03/31 04:50:22;;;;;;;;;33.25;28.00;;;;;;;;6489684;39;9021;-53
2024/03/31 04:56:25;;;;;;;;;32.50;29.75;;;;;;;;6489472;39;9878;-53
2024/03/31 05:02:26;;;;;;;;;35.00;29.75;;;;;;;;6489671;47;8967;-52
2024/03/31 05:08:27;;;;;;;;;32.00;28.00;;;;;;;;6491638;39;9619;-53
2024/03/31 05:14:28;;;;;;;;;39.00;30.00;;;;;;;;6491347;46;8887;-53
2024/03/31 05:20:30;;;;;;;;;30.25;26.75;;;;;;;;6491948;46;8944;-54
2024/03/31 05:26:32;;;;;;;;;31.75;28.25;;;;;;;;6491521;39;8895;-53
2024/03/31 05:32:35;;;;;;;;;34.33;26.33;;;;;;;;6491696;46;8888;-54
2024/03/31 05:38:43;;;;;;;;;39.00;33.67;;;;;;;;6491646;31;9522;-55
2024/03/31 05:44:48;;;;;;;;;31.00;29.00;;;;;;;;6491281;39;8941;-55
2024/03/31 05:50:51;;;;;;;;;30.00;29.00;;;;;;;;6491729;39;8985;-52
2024/03/31 05:56:53;;;;;;;;;32.67;27.33;;;;;;;;6490522;46;8881;-52
2024/03/31 06:02:58;;;;;;;;;35.33;32.00;;;;;;;;6491246;46;8990;-53
2024/03/31 06:09:02;;;;;;;;;27.00;23.67;;;;;;;;6490919;39;8948;-57
2024/03/31 06:15:03;;;;;;;;;38.00;31.33;;;;;;;;6490939;46;8929;-54
2024/03/31 06:21:07;;;;;;;;;32.67;29.67;;;;;;;;6491106;39;8960;-55
2024/03/31 06:27:09;;;;;;;;;34.67;29.67;;;;;;;;6490717;39;8847;-53
2024/03/31 06:33:11;;;;;;;;;31.67;27.33;;;;;;;;6492143;31;8846;-53
2024/03/31 06:39:12;;;;;;;;;25.67;23.67;;;;;;;;6491355;39;8941;-52
2024/03/31 06:45:13;;;;;;;;;24.33;21.33;;;;;;;;6490705;46;8899;-54
2024/03/31 06:51:14;;;;;;;;;24.00;22.33;;;;;;;;6491369;39;9817;-53
2024/03/31 06:57:17;;;;;;;;;26.33;20.67;;;;;;;;6490810;39;8901;-52
2024/03/31 07:03:18;;;;;;;;;28.67;24.33;;;;;;;;6491016;39;8989;-55
2024/03/31 07:09:19;;;;;;;;;19.67;19.67;;;;;;;;6490592;39;8877;-57
2024/03/31 07:15:22;;;;;;;;;27.33;19.67;;;;;;;;6490140;39;8966;-55
2024/03/31 07:21:23;;;;;;;;;22.33;21.33;;;;;;;;6490435;46;8898;-54
2024/03/31 07:27:24;;;;;;;;;21.50;18.75;;;;;;;;6490461;39;8860;-55
2024/03/31 07:33:25;;;;;;;;;19.00;18.00;;;;;;;;6490882;39;8932;-54
2024/03/31 07:39:26;;;;;;;;;15.25;13.25;;;;;;;;6490444;46;8919;-56
2024/03/31 07:45:27;;;;;;;;;16.75;14.00;;;;;;;;6490203;46;9083;-55
2024/03/31 07:51:28;;;;;;;;;17.75;17.50;;;;;;;;6491038;39;8883;-54
2024/03/31 07:57:29;;;;;;;;;19.00;17.00;;;;;;;;6490184;39;9532;-55
2024/03/31 08:03:30;;;;;;;;;16.50;14.00;;;;;;;;6490433;39;9038;-54
2024/03/31 08:09:33;;;;;;;;;15.50;14.25;;;;;;;;6491028;39;8857;-55
2024/03/31 08:15:34;;;;;;;;;19.75;15.25;;;;;;;;6489068;47;8891;-53
2024/03/31 08:21:38;;;;;;;;;14.75;14.75;;;;;;;;6490633;39;8936;-55
2024/03/31 08:27:39;;;;;;;;;15.00;14.00;;;;;;;;6489454;47;9092;-55
2024/03/31 08:33:40;;;;;;;;;16.50;16.50;;;;;;;;6489802;47;8911;-54
2024/03/31 08:39:41;;;;;;;;;14.50;13.75;;;;;;;;6491537;39;8915;-56
2024/03/31 08:45:42;;;;;;;;;15.25;15.00;;;;;;;;6491674;46;8929;-55
2024/03/31 08:51:44;;;;;;;;;12.00;12.00;;;;;;;;6492715;31;9491;-56
2024/03/31 08:57:46;;;;;;;;;16.75;16.00;;;;;;;;6491931;39;8916;-56
2024/03/31 09:03:47;;;;;;;;;16.75;16.25;;;;;;;;6491814;31;9012;-55
2024/03/31 09:09:50;;;;;;;;;16.00;13.00;;;;;;;;6491763;31;9574;-54
2024/03/31 09:15:51;;;;;;;;;14.25;13.00;;;;;;;;6491533;39;8875;-54
2024/03/31 09:21:54;;;;;;;;;16.00;14.75;;;;;;;;6493519;31;8976;-57
2024/03/31 09:28:00;;;;;;;;;14.25;12.25;;;;;;;;6491845;39;8851;-57
2024/03/31 09:34:04;;;;;;;;;15.25;15.25;;;;;;;;6491212;46;8972;-54
2024/03/31 09:40:06;;;;;;;;;23.75;21.75;;;;;;;;6492074;39;8993;-52
2024/03/31 09:46:07;;;;;;;;;15.75;14.50;;;;;;;;6490833;46;8996;-54
2024/03/31 09:52:09;;;;;;;;;24.00;22.50;;;;;;;;6491172;46;8911;-54
2024/03/31 09:58:13;;;;;;;;;15.75;14.50;;;;;;;;6491288;31;9026;-54
2024/03/31 10:04:47;;;;;;;;;15.75;15.75;;;;;;;;6491363;39;9013;-57
2024/03/31 10:10:49;;;;;;;;;23.00;23.00;;;;;;;;6492415;39;8865;-54
2024/03/31 10:16:53;;;;;;;;;17.50;15.75;;;;;;;;6491052;46;8855;-54
2024/03/31 10:22:54;;;;;;;;;17.00;15.50;;;;;;;;6492037;39;8961;-55
2024/03/31 10:28:57;;;;;;;;;16.75;15.50;;;;;;;;6490560;39;8886;-54
2024/03/31 10:35:00;;;;;;;;;16.25;13.75;;;;;;;;6490947;46;8810;-51
2024/03/31 10:41:04;;;;;;;;;14.00;13.00;;;;;;;;6490632;31;9086;-54
2024/03/31 10:47:06;;;;;;;;;16.75;14.50;;;;;;;;6490363;46;9016;-53
2024/03/31 10:53:07;;;;;;;;;16.25;16.25;;;;;;;;6491443;39;8994;-52
2024/03/31 10:59:08;;;;;;;;;16.50;14.75;;;;;;;;6490838;39;9008;-52
2024/03/31 11:05:11;;;;;;;;;14.75;14.25;;;;;;;;6490859;39;9026;-54
2024/03/31 11:11:14;;;;;;;;;11.50;10.50;;;;;;;;6491910;39;8873;-52
2024/03/31 11:17:17;;;;;;;;;13.50;11.75;;;;;;;;6491545;39;9621;-53
2024/03/31 11:23:19;;;;;;;;;11.75;9.00;;;;;;;;6490978;46;8960;-53
2024/03/31 11:29:21;;;;;;;;;11.50;10.50;;;;;;;;6490711;39;8878;-54
2024/03/31 11:35:23;;;;;;;;;15.00;14.25;;;;;;;;6490412;46;8842;-55
2024/03/31 11:41:26;;;;;;;;;19.00;17.25;;;;;;;;6490388;39;8911;-55
2024/03/31 11:47:27;;;;;;;;;11.00;11.00;;;;;;;;6490428;39;8869;-54
2024/03/31 11:53:28;;;;;;;;;9.00;9.00;;;;;;;;6491064;39;9598;-55
2024/03/31 11:59:29;;;;;;;;;12.50;10.25;;;;;;;;6489394;39;8937;-57
2024/03/31 12:05:30;;;;;;;;;10.50;10.50;;;;;;;;6490177;47;8939;-55
2024/03/31 12:11:32;;;;;;;;;10.75;10.75;;;;;;;;6490075;39;8865;-55
2024/03/31 12:17:33;;;;;;;;;10.00;8.75;;;;;;;;6492938;31;8967;-55
2024/03/31 12:23:36;;;;;;;;;11.00;11.00;;;;;;;;6492534;46;8972;-57
2024/03/31 12:29:41;;;;;;;;;11.00;10.50;;;;;;;;6492539;39;8843;-55
2024/03/31 12:35:44;;;;;;;;;8.75;8.50;;;;;;;;6492405;39;9004;-54
2024/03/31 12:41:46;;;;;;;;;12.50;9.25;;;;;;;;6491769;46;9081;-57
2024/03/31 12:47:48;;;;;;;;;8.50;8.50;;;;;;;;6492745;31;9562;-56
2024/03/31 12:53:50;;;;;;;;;9.25;9.25;;;;;;;;6492601;31;9009;-51
2024/03/31 12:59:51;;;;;;;;;8.50;7.50;;;;;;;;6491531;39;10015;-57
2024/03/31 13:05:52;;;;;;;;;8.50;7.00;;;;;;;;6492182;39;9089;-56
2024/03/31 13:11:54;;;;;;;;;11.50;11.50;;;;;;;;6491786;39;9269;-54
2024/03/31 13:17:56;;;;;;;;;13.75;12.75;;;;;;;;6491172;46;8977;-55
2024/03/31 13:23:58;;;;;;;;;6.75;6.75;;;;;;;;6492594;39;9000;-53
2024/03/31 13:30:00;;;;;;;;;25.50;22.75;;;;;;;;6492143;31;9086;-55
2024/03/31 13:36:02;;;;;;;;;16.50;13.75;;;;;;;;6491287;46;8983;-54
2024/03/31 13:42:03;;;;;;;;;12.25;11.50;;;;;;;;6491448;39;9078;-57
2024/03/31 13:48:04;;;;;;;;;14.00;11.00;;;;;;;;6491300;39;9033;-52
2024/03/31 13:54:06;;;;;;;;;9.50;9.00;;;;;;;;6491883;46;8883;-54
2024/03/31 14:00:09;;;;;;;;;6.00;6.00;;;;;;;;6490978;46;9005;-55
2024/03/31 14:06:14;;;;;;;;;13.00;11.00;;;;;;;;6491073;39;8982;-56
2024/03/31 14:12:15;;;;;;;;;11.50;9.50;;;;;;;;6492054;39;8953;-56
2024/03/31 14:18:17;;;;;;;;;12.75;10.75;;;;;;;;6492280;39;9526;-55
2024/03/31 14:24:20;;;;;;;;;9.75;9.50;;;;;;;;6491733;46;8906;-55
2024/03/31 14:30:22;;;;;;;;;9.50;7.75;;;;;;;;6491324;39;8843;-56
2024/03/31 14:36:23;;;;;;;;;10.75;10.75;;;;;;;;6491530;39;8889;-57
2024/03/31 14:42:24;;;;;;;;;13.00;10.25;;;;;;;;6491671;39;9539;-56
2024/03/31 14:48:27;;;;;;;;;16.00;11.50;;;;;;;;6490165;31;8841;-56
2024/03/31 14:54:27;;;;;;;;;11.75;11.75;;;;;;;;6491043;31;8855;-55
2024/03/31 15:00:28;;;;;;;;;17.25;15.00;;;;;;;;6490093;46;8849;-57
2024/03/31 15:06:29;;;;;;;;;10.25;10.25;;;;;;;;6491033;39;8959;-54
2024/03/31 15:12:30;;;;;;;;;12.50;10.00;;;;;;;;6490628;46;8976;-56
2024/03/31 15:18:31;;;;;;;;;15.75;14.50;;;;;;;;6490871;39;8924;-56
2024/03/31 15:24:32;;;;;;;;;20.50;18.50;;;;;;;;6491137;46;8869;-57
2024/03/31 15:30:33;;;;;;;;;17.00;12.25;;;;;;;;6490648;39;8887;-56
2024/03/31 15:36:34;;;;;;;;;13.50;11.00;;;;;;;;6490934;39;8990;-53
2024/03/31 15:42:35;;;;;;;;;12.75;11.75;;;;;;;;6489823;39;8962;-55
2024/03/31 15:48:36;;;;;;;;;11.75;11.75;;;;;;;;6490970;39;9621;-58
2024/03/31 15:54:37;;;;;;;;;16.50;16.00;;;;;;;;6491141;39;9011;-54
2024/03/31 16:00:38;;;;;;;;;15.75;15.25;;;;;;;;6490751;31;8865;-53
2024/03/31 16:06:39;;;;;;;;;24.00;23.25;;;;;;;;6490202;39;9073;-53
2024/03/31 16:12:40;;;;;;;;;17.25;17.25;;;;;;;;6490585;39;8909;-55
2024/03/31 16:18:43;;;;;;;;;19.25;18.25;;;;;;;;6489398;46;9022;-54
2024/03/31 16:24:44;;;;;;;;;18.75;18.75;;;;;;;;6490145;39;8925;-55
2024/03/31 16:30:45;;;;;;;;;17.25;16.50;;;;;;;;6489918;39;8886;-55
2024/03/31 16:36:47;;;;;;;;;18.50;16.75;;;;;;;;6490364;39;8865;-57
2024/03/31 16:42:49;;;;;;;;;20.75;19.50;;;;;;;;6490744;39;9117;-54
2024/03/31 16:48:50;;;;;;;;;12.50;12.50;;;;;;;;6489862;39;9000;-54
2024/03/31 16:54:51;;;;;;;;;17.25;15.50;;;;;;;;6489397;31;9020;-55
2024/03/31 17:00:53;;;;;;;;;18.00;15.00;;;;;;;;6490195;46;8953;-53
2024/03/31 17:06:54;;;;;;;;;17.25;16.00;;;;;;;;6310701;36;10001203;-56
2024/03/31 17:12:56;;;;;;;;;19.50;18.75;;;;;;;;6491941;39;8881;-55
2024/03/31 17:18:59;;;;;;;;;25.25;23.00;;;;;;;;6490212;31;8907;-54
2024/03/31 17:25:00;;;;;;;;;19.00;17.50;;;;;;;;6492025;46;8854;-52
2024/03/31 17:31:01;;;;;;;;;15.75;14.25;;;;;;;;6491614;39;8961;-55
2024/03/31 17:37:02;;;;;;;;;18.75;16.25;;;;;;;;6491399;39;8922;-55
2024/03/31 17:43:03;;;;;;;;;24.25;20.75;;;;;;;;6491609;46;8919;-55
2024/03/31 17:49:05;;;;;;;;;27.75;24.00;;;;;;;;6491844;39;9501;-54
2024/03/31 17:55:06;;;;;;;;;23.33;22.67;;;;;;;;6491711;39;8949;-55
2024/03/31 18:01:13;;;;;;;;;25.33;24.67;;;;;;;;6492017;39;8861;-55
2024/03/31 18:07:17;;;;;;;;;28.00;25.33;;;;;;;;6491953;31;8990;-53
2024/03/31 18:13:19;;;;;;;;;31.33;30.67;;;;;;;;6491879;39;8928;-57
2024/03/31 18:19:20;;;;;;;;;30.33;25.67;;;;;;;;6491426;39;8915;-53
2024/03/31 18:25:23;;;;;;;;;25.33;21.00;;;;;;;;6491751;39;8825;-55
2024/03/31 18:31:25;;;;;;;;;51.67;43.00;;;;;;;;6491159;39;9978;-56
2024/03/31 18:37:26;;;;;;;;;48.00;40.33;;;;;;;;6491402;39;8940;-54
2024/03/31 18:43:32;;;;;;;;;45.00;39.00;;;;;;;;6491632;31;9030;-55
2024/03/31 18:49:32;;;;;;;;;30.00;30.00;;;;;;;;6490881;39;8921;-55
2024/03/31 18:55:34;;;;;;;;;39.00;33.00;;;;;;;;6491129;46;8900;-55
2024/03/31 19:01:35;;;;;;;;;30.67;29.67;;;;;;;;6490678;46;9048;-53
2024/03/31 19:07:38;;;;;;;;;37.33;33.00;;;;;;;;6491293;39;8851;-56
2024/03/31 19:13:40;;;;;;;;;40.67;35.67;;;;;;;;6490670;39;8846;-57
2024/03/31 19:19:42;;;;;;;;;39.00;34.33;;;;;;;;6490556;46;8966;-52
2024/03/31 19:25:43;;;;;;;;;37.00;33.67;;;;;;;;6491087;39;8928;-56
2024/03/31 19:31:44;;;;;;;;;49.00;41.00;;;;;;;;6490785;39;8891;-53
2024/03/31 19:37:48;;;;;;;;;47.33;40.00;;;;;;;;6489795;39;8877;-52
2024/03/31 19:43:53;;;;;;;;;50.00;40.33;;;;;;;;6490937;31;9034;-53
2024/03/31 19:49:55;;;;;;;;;50.33;40.00;;;;;;;;6490225;39;8908;-55
2024/03/31 19:56:04;;;;;;;;;46.33;37.33;;;;;;;;6491373;39;8840;-54
2024/03/31 20:02:07;;;;;;;;;50.67;43.00;;;;;;;;6490054;47;8945;-58
2024/03/31 20:08:08;;;;;;;;;48.33;41.33;;;;;;;;6489327;47;9029;-54
2024/03/31 20:14:11;;;;;;;;;51.33;43.00;;;;;;;;6490346;31;8956;-55
2024/03/31 20:20:13;;;;;;;;;47.33;38.67;;;;;;;;6490677;39;8941;-54
2024/03/31 20:26:16;;;;;;;;;53.67;43.00;;;;;;;;6490136;39;8877;-54
2024/03/31 20:32:17;;;;;;;;;55.67;45.00;;;;;;;;6490665;39;8986;-55
2024/03/31 20:38:18;;;;;;;;;45.33;38.33;;;;;;;;6491592;46;8980;-52
2024/03/31 20:44:20;;;;;;;;;45.67;37.67;;;;;;;;6492745;39;9068;-55
2024/03/31 20:50:21;;;;;;;;;54.33;42.33;;;;;;;;6491311;31;8889;-53
2024/03/31 20:56:22;;;;;;;;;41.67;35.00;;;;;;;;6492442;46;8816;-54
2024/03/31 21:02:25;;;;;;;;;47.67;41.00;;;;;;;;6490713;31;9100;-54
2024/03/31 21:08:26;;;;;;;;;51.00;38.00;;;;;;;;6491921;39;8970;-54
2024/03/31 21:14:29;;;;;;;;;50.00;40.67;;;;;;;;6492170;39;8873;-55
2024/03/31 21:20:34;;;;;;;;;55.33;44.33;;;;;;;;6491467;46;8981;-53
2024/03/31 21:26:35;;;;;;;;;54.33;45.33;;;;;;;;6491744;46;8829;-54
2024/03/31 21:32:37;;;;;;;;;45.33;38.67;;;;;;;;6491834;46;8867;-55
2024/03/31 21:38:38;;;;;;;;;50.33;42.00;;;;;;;;6491420;46;8882;-54
2024/03/31 21:44:39;;;;;;;;;49.33;41.33;;;;;;;;6492567;39;8915;-54
2024/03/31 21:50:41;;;;;;;;;49.00;39.33;;;;;;;;6491308;39;8921;-53
2024/03/31 21:56:43;;;;;;;;;46.00;40.67;;;;;;;;6491348;46;8883;-54
2024/03/31 22:02:44;;;;;;;;;50.00;41.50;;;;;;;;6490889;31;8945;-53
2024/03/31 22:08:47;;;;;;;;;47.00;39.33;;;;;;;;6310775;39;10000598;-55
2024/03/31 22:14:48;;;;;;;;;38.33;35.00;;;;;;;;6491813;39;9031;-57
2024/03/31 22:20:49;;;;;;;;;44.67;36.00;;;;;;;;6490898;46;8909;-53
2024/03/31 22:26:50;;;;;;;;;46.00;37.33;;;;;;;;6491990;31;9000;-51
2024/03/31 22:32:53;;;;;;;;;43.33;36.00;;;;;;;;6491418;31;8985;-56
2024/03/31 22:38:54;;;;;;;;;45.00;37.33;;;;;;;;6491143;39;8920;-55
2024/03/31 22:44:55;;;;;;;;;38.00;35.00;;;;;;;;6492690;39;9050;-52
2024/03/31 22:50:57;;;;;;;;;45.33;37.33;;;;;;;;6491555;39;8885;-52
2024/03/31 22:56:59;;;;;;;;;41.67;35.00;;;;;;;;6490623;39;8859;-53
2024/03/31 23:03:01;;;;;;;;;41.00;36.33;;;;;;;;6490751;31;8937;-52
2024/03/31 23:09:02;;;;;;;;;39.67;35.00;;;;;;;;6490378;46;9002;-53
2024/03/31 23:15:04;;;;;;;;;38.00;33.33;;;;;;;;6490948;46;8907;-53
2024/03/31 23:21:05;;;;;;;;;39.67;33.67;;;;;;;;6490315;46;8879;-54
2024/03/31 23:27:06;;;;;;;;;41.00;36.33;;;;;;;;6491579;31;9030;-52
2024/03/31 23:33:13;;;;;;;;;44.33;38.00;;;;;;;;6491666;39;8951;-57
2024/03/31 23:39:15;;;;;;;;;36.67;34.33;;;;;;;;6490454;39;8838;-52
2024/03/31 23:45:15;;;;;;;;;45.67;36.33;;;;;;;;6491258;39;9062;-52
2024/03/31 23:51:18;;;;;;;;;50.67;38.67;;;;;;;;6489945;39;9546;-53
2024/03/31 23:57:19;;;;;;;;;44.33;39.00;;;;;;;;6490617;39;9605;-56
